Time;durP1;ratioP1;P1;durP2;ratioP2;P2;SDS_P1;SDS_P2;PMS_P1;PMS_P2;Temp;Humidity;BMP_temperature;BMP_pressure;BME280_temperature;BME280_humidity;BME280_pressure;Samples;Min_cycle;Max_cycle;Signal;HPM_P1;HPM_P2
2023/06/21 00:01:35;;;;;;;13.33;12.10;;;22.80;99.90;;;;;;5019694;28;20611;-80
2023/06/21 00:04:01;;;;;;;13.37;12.17;;;22.80;99.90;;;;;;5036775;28;20168;-76
2023/06/21 00:06:31;;;;;;;13.30;12.00;;;22.80;99.90;;;;;;5037159;28;20227;-81
2023/06/21 00:08:57;;;;;;;12.97;11.77;;;22.80;99.90;;;;;;5037374;28;20244;-79
2023/06/21 00:11:24;;;;;;;12.77;11.67;;;22.80;99.90;;;;;;5037572;28;20742;-80
2023/06/21 00:13:55;;;;;;;13.23;11.93;;;22.80;99.90;;;;;;5018683;28;20540;-79
2023/06/21 00:16:21;;;;;;;13.73;12.33;;;22.70;99.90;;;;;;5036822;28;20192;-79
2023/06/21 00:18:47;;;;;;;13.20;11.93;;;22.60;99.90;;;;;;5037259;28;20172;-80
2023/06/21 00:21:13;;;;;;;14.20;12.30;;;22.50;99.90;;;;;;5036657;28;20177;-81
2023/06/21 00:23:41;;;;;;;13.87;12.47;;;22.50;99.90;;;;;;5037524;28;20165;-79
2023/06/21 00:26:07;;;;;;;13.37;12.07;;;22.50;99.90;;;;;;5047736;28;20173;-79
2023/06/21 00:28:33;;;;;;;13.20;12.00;;;22.60;99.90;;;;;;5036344;28;20173;-79
2023/06/21 00:30:58;;;;;;;13.83;12.53;;;22.60;99.90;;;;;;5035818;28;20208;-77
2023/06/21 00:33:25;;;;;;;14.43;12.90;;;22.60;99.90;;;;;;5017869;28;20695;-80
2023/06/21 00:35:51;;;;;;;13.10;11.97;;;22.70;99.90;;;;;;5035368;28;20219;-81
2023/06/21 00:38:18;;;;;;;14.10;12.77;;;22.60;99.90;;;;;;5044472;28;20184;-80
2023/06/21 00:40:44;;;;;;;14.30;12.90;;;22.60;99.90;;;;;;5047180;28;20252;-82
2023/06/21 00:43:09;;;;;;;14.73;12.83;;;22.60;99.90;;;;;;5036476;28;20180;-79
2023/06/21 00:45:40;;;;;;;13.80;12.23;;;22.60;99.90;;;;;;5036663;28;20243;-80
2023/06/21 00:48:08;;;;;;;13.80;12.60;;;22.50;99.90;;;;;;5036949;28;20153;-77
2023/06/21 00:50:35;;;;;;;14.60;13.30;;;22.50;99.90;;;;;;5049940;28;20183;-79
2023/06/21 00:53:00;;;;;;;14.27;12.77;;;22.50;99.90;;;;;;5044671;28;20243;-80
2023/06/21 00:55:26;;;;;;;14.70;13.17;;;22.50;99.90;;;;;;5036451;28;20631;-80
2023/06/21 00:57:53;;;;;;;13.70;12.50;;;22.50;99.90;;;;;;5035636;28;20200;-79
2023/06/21 01:00:21;;;;;;;14.00;12.60;;;22.50;99.90;;;;;;5035519;28;20173;-80
2023/06/21 01:02:51;;;;;;;13.57;12.37;;;22.40;99.90;;;;;;5035028;28;20226;-76
2023/06/21 01:05:18;;;;;;;13.60;12.40;;;22.40;99.90;;;;;;5034799;28;20226;-80
2023/06/21 01:08:00;;;;;;;14.13;12.73;;;22.30;99.90;;;;;;5035033;28;20188;-79
2023/06/21 01:10:32;;;;;;;13.50;12.20;;;22.30;99.90;;;;;;5035428;28;20164;-79
2023/06/21 01:13:30;;;;;;;13.23;12.03;;;22.30;99.90;;;;;;5035551;28;20157;-79
2023/06/21 01:16:12;;;;;;;13.30;12.07;;;22.30;99.90;;;;;;5034509;28;20251;-79
2023/06/21 01:18:40;;;;;;;14.23;12.73;;;22.30;99.90;;;;;;5035159;28;20160;-80
2023/06/21 01:21:09;;;;;;;13.47;12.27;;;22.10;99.90;;;;;;5035285;28;20165;-80
2023/06/21 01:23:50;;;;;;;13.90;12.60;;;22.00;99.90;;;;;;5035039;28;20177;-76
2023/06/21 01:26:47;;;;;;;14.03;12.77;;;21.90;99.90;;;;;;5033998;28;20167;-81
2023/06/21 01:29:21;;;;;;;12.90;11.70;;;21.90;99.90;;;;;;5034843;28;20209;-78
2023/06/21 01:31:50;;;;;;;13.87;12.53;;;21.90;99.90;;;;;;5035160;28;20152;-78
2023/06/21 01:34:17;;;;;;;13.83;12.63;;;21.80;99.90;;;;;;5035549;28;20227;-78
2023/06/21 01:36:43;;;;;;;14.37;12.53;;;21.90;99.90;;;;;;5034557;28;20184;-77
2023/06/21 01:39:09;;;;;;;14.50;13.03;;;21.90;99.90;;;;;;5036490;28;20215;-77
2023/06/21 01:41:36;;;;;;;13.60;12.20;;;21.90;99.90;;;;;;5035039;28;20173;-77
2023/06/21 01:44:09;;;;;;;14.60;13.17;;;22.00;99.90;;;;;;5035949;28;20176;-78
2023/06/21 01:46:35;;;;;;;13.60;12.40;;;22.00;99.90;;;;;;5034902;28;20176;-81
2023/06/21 01:49:06;;;;;;;14.00;12.53;;;22.10;99.90;;;;;;5035130;28;20165;-80
2023/06/21 01:51:35;;;;;;;14.00;12.60;;;22.20;99.90;;;;;;5034530;28;20251;-78
2023/06/21 01:54:01;;;;;;;13.77;12.37;;;22.30;99.90;;;;;;5034912;28;20220;-82
2023/06/21 01:56:27;;;;;;;14.50;13.00;;;22.20;99.90;;;;;;5017174;28;20773;-81
2023/06/21 01:58:53;;;;;;;13.60;12.30;;;22.20;99.90;;;;;;5035723;28;20165;-81
2023/06/21 02:01:20;;;;;;;12.90;11.77;;;22.20;99.90;;;;;;5035636;28;20286;-80
2023/06/21 02:03:54;;;;;;;15.67;14.00;;;22.20;99.90;;;;;;5035802;28;20215;-82
2023/06/21 02:06:21;;;;;;;14.53;12.93;;;22.10;99.90;;;;;;5025105;28;20152;-82
2023/06/21 02:08:51;;;;;;;13.57;12.13;;;22.20;99.90;;;;;;5058351;28;20175;-81
2023/06/21 02:11:18;;;;;;;13.77;12.43;;;22.10;99.90;;;;;;5058160;28;20183;-80
2023/06/21 02:13:48;;;;;;;14.03;12.70;;;22.10;99.90;;;;;;5058085;28;20153;-79
2023/06/21 02:16:15;;;;;;;13.67;12.37;;;22.10;99.90;;;;;;5058571;28;20152;-76
2023/06/21 02:18:41;;;;;;;13.73;12.33;;;22.00;99.90;;;;;;5053874;28;20175;-74
2023/06/21 02:21:06;;;;;;;14.33;13.03;;;22.00;99.90;;;;;;5057143;28;20168;-76
2023/06/21 02:23:32;;;;;;;13.93;12.63;;;21.90;99.90;;;;;;5036312;28;20238;-80
2023/06/21 02:25:58;;;;;;;15.17;12.60;;;21.90;99.90;;;;;;5038119;28;20656;-79
2023/06/21 02:28:24;;;;;;;14.03;12.63;;;21.90;99.90;;;;;;5045007;28;20176;-80
2023/06/21 02:30:49;;;;;;;14.53;13.23;;;21.90;99.90;;;;;;5039042;28;20232;-79
2023/06/21 02:33:15;;;;;;;13.37;12.17;;;22.00;99.90;;;;;;5016947;28;20176;-80
2023/06/21 02:35:41;;;;;;;15.83;12.47;;;21.90;99.90;;;;;;5033975;28;20669;-78
2023/06/21 02:38:07;;;;;;;14.33;12.73;;;22.00;99.90;;;;;;5016294;28;20172;-79
2023/06/21 02:40:32;;;;;;;13.80;12.43;;;22.00;99.90;;;;;;5033793;28;20251;-80
2023/06/21 02:42:58;;;;;;;14.37;13.07;;;22.00;99.90;;;;;;5034040;28;20192;-79
2023/06/21 02:45:24;;;;;;;14.23;12.83;;;21.90;99.90;;;;;;5033791;28;20204;-81
2023/06/21 02:47:50;;;;;;;13.73;12.37;;;21.90;99.90;;;;;;5033801;28;20169;-80
2023/06/21 02:50:17;;;;;;;14.33;13.03;;;21.90;99.90;;;;;;5034885;28;20173;-80
2023/06/21 02:52:43;;;;;;;14.33;13.00;;;21.90;99.90;;;;;;5036063;28;20169;-80
2023/06/21 02:55:09;;;;;;;12.70;11.50;;;21.80;99.90;;;;;;5036997;28;20267;-77
2023/06/21 02:57:34;;;;;;;14.13;12.83;;;21.80;99.90;;;;;;5034484;28;20179;-80
2023/06/21 03:00:00;;;;;;;13.10;11.80;;;21.80;99.90;;;;;;5033756;28;20176;-80
2023/06/21 03:02:33;;;;;;;13.73;12.37;;;21.80;99.90;;;;;;5034222;28;20172;-77
2023/06/21 03:04:59;;;;;;;13.90;12.53;;;21.70;99.90;;;;;;5033741;28;20157;-79
2023/06/21 03:07:27;;;;;;;14.40;12.90;;;21.80;99.90;;;;;;5033481;28;20172;-79
2023/06/21 03:09:52;;;;;;;14.17;12.97;;;21.70;99.90;;;;;;5034589;28;20179;-80
2023/06/21 03:12:18;;;;;;;13.20;12.00;;;21.70;99.90;;;;;;5015433;28;20184;-79
2023/06/21 03:14:44;;;;;;;13.60;12.33;;;21.70;99.90;;;;;;5033087;28;20208;-78
2023/06/21 03:17:09;;;;;;;14.43;13.03;;;21.70;99.90;;;;;;5033481;28;20215;-78
2023/06/21 03:19:35;;;;;;;13.57;12.33;;;21.60;99.90;;;;;;5033394;28;20582;-79
2023/06/21 03:22:02;;;;;;;14.23;12.87;;;21.60;99.90;;;;;;5033805;28;20172;-80
2023/06/21 03:24:32;;;;;;;14.73;13.23;;;21.60;99.90;;;;;;5033475;28;20165;-81
2023/06/21 03:27:02;;;;;;;13.93;12.63;;;21.60;99.90;;;;;;5033240;28;20164;-80
2023/06/21 03:29:28;;;;;;;13.97;12.67;;;21.60;99.90;;;;;;5033325;28;20161;-82
2023/06/21 03:31:54;;;;;;;14.47;13.17;;;21.60;99.90;;;;;;5032995;28;20181;-80
2023/06/21 03:34:20;;;;;;;15.23;13.83;;;21.50;99.90;;;;;;5038791;28;20219;-84
2023/06/21 03:36:45;;;;;;;14.70;13.30;;;21.50;99.90;;;;;;5018571;28;20189;-79
2023/06/21 03:39:11;;;;;;;14.27;12.97;;;21.60;99.90;;;;;;5034399;28;20180;-80
2023/06/21 03:41:38;;;;;;;16.40;14.97;;;21.60;99.90;;;;;;5033440;28;20226;-78
2023/06/21 03:44:03;;;;;;;15.97;14.30;;;21.60;99.90;;;;;;5015460;28;20180;-79
2023/06/21 03:46:29;;;;;;;16.03;14.53;;;21.60;99.90;;;;;;5032714;28;20238;-78
2023/06/21 03:48:55;;;;;;;16.27;14.67;;;21.70;99.90;;;;;;5035727;28;20187;-80
2023/06/21 03:51:22;;;;;;;16.73;15.13;;;21.60;99.90;;;;;;5037471;28;20177;-78
2023/06/21 03:53:47;;;;;;;17.30;15.50;;;21.70;99.90;;;;;;5048424;28;20225;-81
2023/06/21 03:56:13;;;;;;;15.47;14.07;;;21.70;99.90;;;;;;5044405;28;20191;-81
2023/06/21 03:58:39;;;;;;;17.00;14.30;;;21.70;99.90;;;;;;5036774;28;20191;-77
2023/06/21 04:01:04;;;;;;;15.17;13.77;;;21.70;99.90;;;;;;5036858;28;20203;-79
2023/06/21 04:03:30;;;;;;;15.37;13.90;;;21.70;99.90;;;;;;5036779;28;20248;-79
2023/06/21 04:05:56;;;;;;;14.60;13.30;;;21.70;99.90;;;;;;5052897;28;20187;-83
2023/06/21 04:08:21;;;;;;;15.13;13.37;;;21.80;99.90;;;;;;5040084;28;20173;-80
2023/06/21 04:10:47;;;;;;;14.67;13.03;;;21.70;99.90;;;;;;5036214;28;20663;-82
2023/06/21 04:13:13;;;;;;;18.30;14.03;;;21.70;99.90;;;;;;5036516;28;20255;-81
2023/06/21 04:15:39;;;;;;;15.20;13.70;;;21.70;99.90;;;;;;5035769;28;20607;-81
2023/06/21 04:18:04;;;;;;;15.90;13.83;;;21.70;99.90;;;;;;5036720;28;20173;-76
2023/06/21 04:20:30;;;;;;;15.30;13.80;;;21.70;99.90;;;;;;5038175;28;20173;-80
2023/06/21 04:22:57;;;;;;;15.63;14.13;;;21.70;99.90;;;;;;5036250;28;20635;-80
2023/06/21 04:25:23;;;;;;;15.43;13.93;;;21.70;99.90;;;;;;5036257;28;20230;-79
2023/06/21 04:27:49;;;;;;;16.00;14.30;;;21.70;99.90;;;;;;5036137;28;20704;-79
2023/06/21 04:30:14;;;;;;;15.27;13.80;;;21.80;99.90;;;;;;5018637;28;20173;-79
2023/06/21 04:32:46;;;;;;;15.13;13.73;;;21.80;99.90;;;;;;5018576;28;20199;-83
2023/06/21 04:35:16;;;;;;;15.73;14.23;;;21.90;99.90;;;;;;5018339;28;20208;-80
2023/06/21 04:37:46;;;;;;;16.57;14.07;;;21.90;99.90;;;;;;5018787;28;20187;-80
2023/06/21 04:40:17;;;;;;;14.10;12.70;;;21.90;99.90;;;;;;5018218;28;20176;-81
2023/06/21 04:42:44;;;;;;;16.03;14.53;;;21.90;99.90;;;;;;5035932;28;20172;-81
2023/06/21 04:45:15;;;;;;;16.60;14.80;;;21.90;99.90;;;;;;5036066;28;20187;-79
2023/06/21 04:47:47;;;;;;;15.80;14.17;;;22.00;99.90;;;;;;5036906;28;20165;-80
2023/06/21 04:50:14;;;;;;;15.33;13.83;;;21.90;99.90;;;;;;5037821;28;20219;-78
2023/06/21 04:52:40;;;;;;;15.00;13.60;;;21.90;99.90;;;;;;5040228;28;20528;-79
2023/06/21 04:55:07;;;;;;;15.97;14.40;;;21.90;99.90;;;;;;5021942;28;20215;-78
2023/06/21 04:57:33;;;;;;;17.08;14.88;;;21.90;99.90;;;;;;5036594;28;20176;-80
2023/06/21 05:00:06;;;;;;;15.47;14.07;;;21.90;99.90;;;;;;5035560;28;20180;-81
2023/06/21 05:02:32;;;;;;;15.30;13.70;;;21.90;99.90;;;;;;5036088;28;20291;-80
2023/06/21 05:05:03;;;;;;;15.23;13.70;;;22.00;99.90;;;;;;5035479;28;20173;-80
2023/06/21 05:07:29;;;;;;;14.90;13.40;;;22.20;99.90;;;;;;5035368;28;20739;-78
2023/06/21 05:09:55;;;;;;;15.70;14.27;;;22.30;99.90;;;;;;5035385;28;20543;-80
2023/06/21 05:12:20;;;;;;;15.50;13.97;;;22.40;99.90;;;;;;5035683;28;20184;-79
2023/06/21 05:14:48;;;;;;;17.33;15.25;;;22.40;99.90;;;;;;5034429;28;20208;-79
2023/06/21 05:17:15;;;;;;;15.73;14.32;;;22.40;99.90;;;;;;5035200;28;20172;-80
2023/06/21 05:19:45;;;;;;;15.13;13.63;;;22.60;99.90;;;;;;5017268;28;20184;-79
2023/06/21 05:22:10;;;;;;;16.13;14.52;;;22.70;99.90;;;;;;5019593;28;20191;-81
2023/06/21 05:24:37;;;;;;;15.85;14.23;;;22.80;99.90;;;;;;5039360;28;20176;-80
2023/06/21 05:27:04;;;;;;;15.40;13.93;;;22.70;99.90;;;;;;5034982;28;20180;-81
2023/06/21 05:29:29;;;;;;;15.60;13.80;;;22.80;99.90;;;;;;5036356;28;20177;-80
2023/06/21 05:31:55;;;;;;;16.00;14.30;;;22.90;99.90;;;;;;5042721;28;20176;-78
2023/06/21 05:34:21;;;;;;;14.95;13.35;;;23.00;99.90;;;;;;5022288;28;20219;-81
2023/06/21 05:36:47;;;;;;;14.77;13.38;;;23.10;99.90;;;;;;5037541;28;20172;-81
2023/06/21 05:39:13;;;;;;;15.70;14.20;;;23.00;99.90;;;;;;5039278;28;20192;-80
2023/06/21 05:41:39;;;;;;;15.77;14.23;;;22.90;99.90;;;;;;5035804;28;20176;-80
2023/06/21 05:44:04;;;;;;;16.50;14.10;;;22.90;99.90;;;;;;5049811;28;20176;-78
2023/06/21 05:46:30;;;;;;;15.70;14.07;;;22.90;99.90;;;;;;5045778;28;20728;-81
2023/06/21 05:48:56;;;;;;;15.07;13.57;;;23.00;99.90;;;;;;5034422;28;20181;-81
2023/06/21 05:51:22;;;;;;;17.55;14.90;;;23.10;99.90;;;;;;5034365;28;20184;-80
2023/06/21 05:53:48;;;;;;;15.10;13.60;;;23.10;99.90;;;;;;5034069;28;20224;-81
2023/06/21 05:56:15;;;;;;;14.50;13.20;;;23.10;99.90;;;;;;5034326;28;20204;-80
2023/06/21 05:58:40;;;;;;;15.03;13.53;;;23.20;99.90;;;;;;5033876;28;20179;-78
2023/06/21 06:01:06;;;;;;;15.27;13.83;;;23.20;99.90;;;;;;5016554;28;20180;-78
2023/06/21 06:03:32;;;;;;;15.57;13.60;;;23.40;99.90;;;;;;5034477;28;20173;-78
2023/06/21 06:05:57;;;;;;;14.93;13.48;;;23.40;99.90;;;;;;5037579;28;20230;-78
2023/06/21 06:08:24;;;;;;;15.87;13.87;;;23.50;99.90;;;;;;5038109;28;20195;-82
2023/06/21 06:10:50;;;;;;;15.88;14.15;;;23.60;99.90;;;;;;5016375;28;20233;-81
2023/06/21 06:13:16;;;;;;;14.88;13.32;;;23.70;99.90;;;;;;5020059;28;20590;-83
2023/06/21 06:15:42;;;;;;;14.68;13.35;;;23.80;99.90;;;;;;5017019;28;20224;-82
2023/06/21 06:18:08;;;;;;;15.30;13.88;;;23.90;99.90;;;;;;5016506;28;20333;-78
2023/06/21 06:20:33;;;;;;;14.52;13.02;;;24.10;99.90;;;;;;5034860;28;20169;-77
2023/06/21 06:23:01;;;;;;;14.60;13.30;;;24.20;99.90;;;;;;5039228;28;20172;-79
2023/06/21 06:25:27;;;;;;;14.88;13.48;;;24.30;99.90;;;;;;5016151;28;20199;-77
2023/06/21 06:27:53;;;;;;;14.73;13.27;;;24.40;99.90;;;;;;5016304;28;20632;-78
2023/06/21 06:30:18;;;;;;;14.50;13.13;;;24.40;99.90;;;;;;5016602;28;20525;-78
2023/06/21 06:32:44;;;;;;;14.27;12.77;;;24.40;99.90;;;;;;5034136;28;20200;-77
2023/06/21 06:35:10;;;;;;;13.38;12.18;;;24.50;99.90;;;;;;5033839;28;20204;-79
2023/06/21 06:37:35;;;;;;;14.38;12.98;;;24.60;99.90;;;;;;5033787;28;20196;-79
2023/06/21 06:40:01;;;;;;;14.82;13.15;;;24.70;99.90;;;;;;5034233;28;20205;-81
2023/06/21 06:42:27;;;;;;;13.70;12.50;;;24.70;99.90;;;;;;5016208;28;20617;-79
2023/06/21 06:44:53;;;;;;;14.43;13.02;;;24.80;99.90;;;;;;5034390;28;20226;-80
2023/06/21 06:47:19;;;;;;;14.98;13.48;;;24.80;99.90;;;;;;5034194;28;20176;-78
2023/06/21 06:49:45;;;;;;;16.40;12.77;;;24.80;99.90;;;;;;5033949;28;20946;-79
2023/06/21 06:52:13;;;;;;;14.00;12.60;;;24.90;99.90;;;;;;5037700;28;20322;-80
2023/06/21 06:54:40;;;;;;;13.55;12.27;;;25.00;99.90;;;;;;5037461;28;20228;-79
2023/06/21 06:57:06;;;;;;;14.02;12.55;;;25.10;99.90;;;;;;5018784;28;20176;-80
2023/06/21 06:59:31;;;;;;;13.57;12.27;;;25.20;99.90;;;;;;5015832;28;20280;-79
2023/06/21 07:01:57;;;;;;;15.07;12.50;;;25.20;99.90;;;;;;5033312;28;20628;-79
2023/06/21 07:04:25;;;;;;;14.70;12.15;;;25.20;99.90;;;;;;5033599;28;20192;-80
2023/06/21 07:06:51;;;;;;;14.57;12.52;;;25.20;99.90;;;;;;5034181;28;20173;-79
2023/06/21 07:09:16;;;;;;;13.80;12.20;;;25.30;99.90;;;;;;5025877;28;20236;-79
2023/06/21 07:11:42;;;;;;;13.20;11.90;;;25.40;99.90;;;;;;5042083;28;20184;-80
2023/06/21 07:14:08;;;;;;;13.88;12.57;;;25.60;99.90;;;;;;5033977;28;20683;-80
2023/06/21 07:16:34;;;;;;;12.80;11.55;;;25.60;99.90;;;;;;5016341;28;20195;-79
2023/06/21 07:19:02;;;;;;;13.90;12.48;;;25.60;99.90;;;;;;5016863;28;20644;-79
2023/06/21 07:21:29;;;;;;;14.20;12.82;;;25.70;99.90;;;;;;5037631;28;20640;-79
2023/06/21 07:23:55;;;;;;;13.45;12.10;;;25.80;99.90;;;;;;5041709;28;20633;-79
2023/06/21 07:26:21;;;;;;;14.75;13.15;;;25.90;99.90;;;;;;5040083;28;20173;-78
2023/06/21 07:28:47;;;;;;;13.73;12.45;;;26.00;99.90;;;;;;5022755;28;20172;-79
2023/06/21 07:31:13;;;;;;;13.07;11.93;;;26.20;99.90;;;;;;5023779;28;20180;-80
2023/06/21 07:33:38;;;;;;;13.82;12.43;;;26.20;99.90;;;;;;5040036;28;20251;-79
2023/06/21 07:36:05;;;;;;;13.98;12.40;;;26.30;99.90;;;;;;5050191;28;20258;-78
2023/06/21 07:38:31;;;;;;;13.30;12.00;;;26.30;99.90;;;;;;5040210;28;20173;-79
2023/06/21 07:40:57;;;;;;;14.35;12.50;;;26.40;99.90;;;;;;5041361;28;20188;-80
2023/06/21 07:43:22;;;;;;;13.75;12.35;;;26.60;99.90;;;;;;5038658;28;20168;-78
2023/06/21 07:45:48;;;;;;;14.32;11.80;;;26.70;99.90;;;;;;5039462;28;20249;-79
2023/06/21 07:48:14;;;;;;;16.50;11.60;;;26.80;99.90;;;;;;5039668;28;20173;-79
2023/06/21 07:50:40;;;;;;;12.18;11.02;;;26.90;99.90;;;;;;5039036;28;20172;-79
2023/06/21 07:53:06;;;;;;;12.95;11.65;;;26.90;99.90;;;;;;5039610;28;20644;-79
2023/06/21 07:55:33;;;;;;;13.25;11.60;;;27.10;99.90;;;;;;5042197;28;20208;-78
2023/06/21 07:57:58;;;;;;;12.13;10.93;;;27.30;99.90;;;;;;5037732;28;20196;-79
2023/06/21 08:00:24;;;;;;;12.25;11.25;;;27.30;99.90;;;;;;5058143;28;20581;-80
2023/06/21 08:02:54;;;;;;;12.32;10.93;;;27.30;99.90;;;;;;5046127;28;20667;-79
2023/06/21 08:05:20;;;;;;;12.77;11.25;;;27.50;99.90;;;;;;5028473;28;20191;-80
2023/06/21 08:07:46;;;;;;;14.82;11.10;;;27.60;99.90;;;;;;5038999;28;20601;-80
2023/06/21 08:10:12;;;;;;;12.27;11.00;;;27.80;99.90;;;;;;5039336;28;20173;-79
2023/06/21 08:12:38;;;;;;;14.52;11.10;;;27.90;99.90;;;;;;5036772;28;20629;-81
2023/06/21 08:15:05;;;;;;;12.02;10.77;;;27.90;99.90;;;;;;5035806;28;20208;-81
2023/06/21 08:17:31;;;;;;;11.73;10.60;;;28.00;99.90;;;;;;5036140;28;20204;-79
2023/06/21 08:19:58;;;;;;;12.18;10.90;;;28.00;99.90;;;;;;5038089;28;20187;-80
2023/06/21 08:22:24;;;;;;;12.18;10.98;;;28.20;99.90;;;;;;5037056;28;20528;-78
2023/06/21 08:24:50;;;;;;;10.95;9.85;;;28.40;99.90;;;;;;5018339;28;20687;-79
2023/06/21 08:27:16;;;;;;;11.90;9.95;;;28.50;99.90;;;;;;5035709;28;20177;-81
2023/06/21 08:29:42;;;;;;;11.43;10.40;;;28.60;99.90;;;;;;5035901;28;20219;-79
2023/06/21 08:32:07;;;;;;;12.02;10.93;;;28.70;99.90;;;;;;5036170;28;20173;-81
2023/06/21 08:34:33;;;;;;;11.38;10.38;;;28.80;99.90;;;;;;5045676;28;20200;-80
2023/06/21 08:36:59;;;;;;;12.60;11.30;;;28.90;99.90;;;;;;5046052;28;20184;-78
2023/06/21 08:39:25;;;;;;;16.33;11.07;;;29.10;99.90;;;;;;5037907;28;20180;-79
2023/06/21 08:41:52;;;;;;;12.30;11.13;;;29.00;99.90;;;;;;5037544;28;20180;-80
2023/06/21 08:44:17;;;;;;;12.27;11.15;;;29.10;99.90;;;;;;5036061;28;20168;-79
2023/06/21 08:46:47;;;;;;;10.75;9.82;;;29.10;99.90;;;;;;5042300;28;20199;-79
2023/06/21 08:49:18;;;;;;;12.43;11.13;;;29.20;99.90;;;;;;5043457;28;20173;-80
2023/06/21 08:51:46;;;;;;;13.20;10.40;;;29.30;99.90;;;;;;5036327;28;20167;-81
2023/06/21 08:54:13;;;;;;;11.73;10.52;;;29.30;99.90;;;;;;5019032;28;20317;-81
2023/06/21 08:56:59;;;;;;;12.18;11.02;;;29.50;99.90;;;;;;5037001;28;20168;-79
2023/06/21 08:59:34;;;;;;;12.52;11.35;;;29.50;99.90;;;;;;5051343;28;20165;-81
2023/06/21 09:02:15;;;;;;;13.38;12.00;;;29.60;99.90;;;;;;5040450;28;20643;-79
2023/06/21 09:04:45;;;;;;;13.98;12.35;;;29.60;99.90;;;;;;5038324;28;20165;-79
2023/06/21 09:07:12;;;;;;;15.18;11.27;;;29.60;99.90;;;;;;5035967;28;20200;-79
2023/06/21 09:09:40;;;;;;;12.32;11.10;;;29.50;99.90;;;;;;5017404;28;20590;-80
2023/06/21 09:12:07;;;;;;;13.80;12.35;;;29.40;99.90;;;;;;5034811;28;20173;-81
2023/06/21 09:14:33;;;;;;;14.50;11.45;;;29.40;99.90;;;;;;5034468;28;20232;-79
2023/06/21 09:17:00;;;;;;;16.10;11.25;;;29.50;99.90;;;;;;5034620;28;20177;-79
2023/06/21 09:19:27;;;;;;;12.75;11.45;;;29.40;99.90;;;;;;5034860;28;20575;-79
2023/06/21 09:21:56;;;;;;;12.02;10.93;;;29.50;99.90;;;;;;5034288;28;20169;-79
2023/06/21 09:24:22;;;;;;;11.65;10.45;;;29.50;99.90;;;;;;5034799;28;20164;-79
2023/06/21 09:26:48;;;;;;;12.02;10.18;;;29.70;99.90;;;;;;5034356;28;20506;-79
2023/06/21 09:29:15;;;;;;;11.52;10.43;;;29.80;99.90;;;;;;5017538;28;20183;-81
2023/06/21 09:31:41;;;;;;;12.27;9.70;;;29.90;99.90;;;;;;5036157;28;20177;-79
2023/06/21 09:34:06;;;;;;;10.40;9.48;;;30.00;99.90;;;;;;5016767;28;20282;-80
2023/06/21 09:36:32;;;;;;;12.15;10.02;;;30.10;99.80;;;;;;5016997;28;20204;-79
2023/06/21 09:39:11;;;;;;;9.65;8.75;;;30.20;99.60;;;;;;5034577;28;20196;-80
2023/06/21 09:41:39;;;;;;;9.63;8.25;;;30.20;98.90;;;;;;5034408;28;20204;-78
2023/06/21 09:44:05;;;;;;;11.68;8.13;;;30.00;97.60;;;;;;5034563;28;20227;-81
2023/06/21 09:46:31;;;;;;;9.68;8.10;;;30.00;97.30;;;;;;5033782;28;20676;-78
2023/06/21 09:49:09;;;;;;;10.20;8.25;;;30.10;97.00;;;;;;5034276;28;20203;-80
2023/06/21 09:51:46;;;;;;;8.77;7.70;;;30.10;97.00;;;;;;5034049;28;20550;-79
2023/06/21 09:54:12;;;;;;;9.30;8.40;;;30.10;97.00;;;;;;5034255;28;20222;-79
2023/06/21 09:56:39;;;;;;;9.07;8.27;;;30.00;97.30;;;;;;5034271;28;20251;-79
2023/06/21 09:59:22;;;;;;;8.27;7.55;;;30.00;96.50;;;;;;5034374;28;20226;-81
2023/06/21 10:01:49;;;;;;;8.93;7.00;;;30.20;96.50;;;;;;5034361;28;20178;-79
2023/06/21 10:04:17;;;;;;;6.80;6.20;;;30.10;94.50;;;;;;5017029;28;20184;-79
2023/06/21 10:06:55;;;;;;;7.60;6.32;;;30.20;95.00;;;;;;5043806;28;20261;-83
2023/06/21 10:09:22;;;;;;;10.60;7.13;;;30.30;94.60;;;;;;5055933;28;20208;-79
2023/06/21 10:11:54;;;;;;;9.43;7.78;;;30.40;95.20;;;;;;5055737;28;20184;-81
2023/06/21 10:14:21;;;;;;;7.40;6.70;;;30.40;94.70;;;;;;5058174;28;20252;-83
2023/06/21 10:16:53;;;;;;;7.63;6.97;;;30.40;94.90;;;;;;5058342;28;20173;-81
2023/06/21 10:19:22;;;;;;;7.82;7.03;;;30.40;94.70;;;;;;5058545;28;20205;-81
2023/06/21 10:22:08;;;;;;;9.65;7.45;;;30.50;94.90;;;;;;5058390;28;20252;-82
2023/06/21 10:24:47;;;;;;;9.80;7.55;;;30.60;94.60;;;;;;5057741;28;20179;-79
2023/06/21 10:27:14;;;;;;;8.10;6.95;;;30.80;94.90;;;;;;5058129;28;20176;-80
2023/06/21 10:29:43;;;;;;;7.32;6.57;;;30.80;94.50;;;;;;5049973;28;20181;-81
2023/06/21 10:32:10;;;;;;;9.77;7.68;;;30.90;94.60;;;;;;5024737;28;20187;-79
2023/06/21 10:34:55;;;;;;;9.95;7.97;;;30.90;94.80;;;;;;5025542;28;20219;-80
2023/06/21 10:37:48;;;;;;;8.95;8.02;;;31.00;95.40;;;;;;5051937;28;20168;-79
2023/06/21 10:40:16;;;;;;;8.52;7.75;;;31.10;95.50;;;;;;5038471;28;20171;-79
2023/06/21 10:42:43;;;;;;;8.93;8.13;;;31.10;95.80;;;;;;5042665;28;20176;-80
2023/06/21 10:45:11;;;;;;;9.93;7.72;;;31.10;94.50;;;;;;5038736;28;20198;-80
2023/06/21 10:47:38;;;;;;;8.98;7.90;;;30.90;94.50;;;;;;5034403;28;20164;-79
2023/06/21 10:50:07;;;;;;;9.27;8.27;;;31.00;94.00;;;;;;5033714;28;20175;-79
2023/06/21 10:52:35;;;;;;;8.35;7.38;;;31.00;94.40;;;;;;5035179;28;20560;-80
2023/06/21 10:55:02;;;;;;;9.15;8.20;;;31.10;94.60;;;;;;5034028;28;20220;-80
2023/06/21 10:57:30;;;;;;;9.25;8.45;;;31.10;93.60;;;;;;5037871;28;20356;-79
2023/06/21 11:00:04;;;;;;;10.60;8.20;;;31.10;94.90;;;;;;5042863;28;20176;-79
2023/06/21 11:02:30;;;;;;;11.00;8.05;;;31.10;95.10;;;;;;5042246;28;20156;-80
2023/06/21 11:05:15;;;;;;;8.73;7.93;;;31.20;95.00;;;;;;5041851;28;20187;-79
2023/06/21 11:07:53;;;;;;;11.57;8.60;;;31.10;94.40;;;;;;5039986;28;20180;-79
2023/06/21 11:10:47;;;;;;;10.98;8.68;;;30.90;94.80;;;;;;5040002;28;20589;-78
2023/06/21 11:13:14;;;;;;;9.15;8.25;;;30.90;95.60;;;;;;5039776;28;20376;-79
2023/06/21 11:15:48;;;;;;;9.88;8.88;;;31.00;95.90;;;;;;5039499;28;20242;-80
2023/06/21 11:18:18;;;;;;;13.15;9.10;;;31.20;95.70;;;;;;5039571;28;20163;-80
2023/06/21 11:20:51;;;;;;;10.63;9.60;;;31.30;96.70;;;;;;5039333;28;20179;-80
2023/06/21 11:23:19;;;;;;;9.52;8.63;;;31.50;96.50;;;;;;5039543;28;20204;-81
2023/06/21 11:25:58;;;;;;;12.32;9.30;;;31.60;96.00;;;;;;5039635;28;20177;-81
2023/06/21 11:28:29;;;;;;;9.45;8.50;;;31.60;96.00;;;;;;5040151;28;20187;-80
2023/06/21 11:31:06;;;;;;;10.60;9.63;;;31.60;95.60;;;;;;5039630;28;20240;-82
2023/06/21 11:33:49;;;;;;;12.48;10.02;;;31.60;95.70;;;;;;5039382;28;20672;-80
2023/06/21 11:36:17;;;;;;;9.75;8.82;;;31.50;95.60;;;;;;5021254;28;20211;-81
2023/06/21 11:38:51;;;;;;;13.20;9.23;;;31.60;95.30;;;;;;5021332;28;20275;-81
2023/06/21 11:41:55;;;;;;;13.82;9.50;;;31.70;95.00;;;;;;5043785;28;20292;-80
2023/06/21 11:44:23;;;;;;;10.23;9.07;;;31.70;95.50;;;;;;5042448;28;20187;-79
2023/06/21 11:46:49;;;;;;;10.10;8.75;;;31.70;95.40;;;;;;5039285;28;20235;-80
2023/06/21 11:49:15;;;;;;;10.27;9.27;;;31.80;95.60;;;;;;5039897;28;20164;-81
2023/06/21 11:52:00;;;;;;;10.52;8.70;;;31.80;96.00;;;;;;5040938;28;20180;-81
2023/06/21 11:54:36;;;;;;;9.60;8.68;;;31.90;95.50;;;;;;5038780;28;20219;-80
2023/06/21 11:57:06;;;;;;;10.88;9.18;;;32.00;95.10;;;;;;5021443;28;20176;-80
2023/06/21 11:59:33;;;;;;;9.63;8.85;;;32.20;95.50;;;;;;5039387;28;20177;-82
2023/06/21 12:02:22;;;;;;;8.82;8.00;;;32.30;95.50;;;;;;5040319;28;20169;-80
2023/06/21 12:04:50;;;;;;;9.63;8.55;;;32.20;95.50;;;;;;5049850;28;20156;-80
2023/06/21 12:07:16;;;;;;;13.60;9.93;;;32.20;95.60;;;;;;5041426;28;20168;-79
2023/06/21 12:09:50;;;;;;;13.05;9.63;;;32.30;95.70;;;;;;5036471;28;20263;-81
2023/06/21 12:12:16;;;;;;;14.15;9.25;;;32.20;95.50;;;;;;5036578;28;20176;-79
2023/06/21 12:14:43;;;;;;;12.98;10.00;;;32.30;95.30;;;;;;5049884;28;20219;-80
2023/06/21 12:17:15;;;;;;;10.13;9.18;;;32.40;96.10;;;;;;5029187;28;20216;-79
2023/06/21 12:19:41;;;;;;;10.73;9.52;;;32.40;96.00;;;;;;5036919;28;20161;-79
2023/06/21 12:22:07;;;;;;;14.80;10.10;;;32.50;94.40;;;;;;5036131;28;20169;-79
2023/06/21 12:24:33;;;;;;;10.45;9.35;;;32.50;95.10;;;;;;5018323;28;20608;-78
2023/06/21 12:27:03;;;;;;;9.93;8.93;;;32.50;95.60;;;;;;5036157;28;20246;-79
2023/06/21 12:29:29;;;;;;;11.68;9.05;;;32.60;95.50;;;;;;5035948;28;20169;-80
2023/06/21 12:31:58;;;;;;;11.98;8.98;;;32.70;95.20;;;;;;5035842;28;20168;-80
2023/06/21 12:34:24;;;;;;;12.52;9.55;;;32.80;94.20;;;;;;5035957;28;20671;-79
2023/06/21 12:36:51;;;;;;;8.93;8.13;;;32.70;94.80;;;;;;5018207;28;20662;-80